Time;durP1;ratioP1;P1;durP2;ratioP2;P2;SDS_P1;SDS_P2;PMS_P1;PMS_P2;Temp;Humidity;BMP_temperature;BMP_pressure;BME280_temperature;BME280_humidity;BME280_pressure;Samples;Min_cycle;Max_cycle;Signal;HPM_P1;HPM_P2
2020/12/15 00:01:12;;;;;;;36.65;15.90;;;;;;;-1.62;61.71;100275.84;5032654;28;20563;-58
2020/12/15 00:03:38;;;;;;;33.25;15.40;;;;;;;-1.56;61.50;100279.22;5032769;28;20081;-55
2020/12/15 00:06:03;;;;;;;31.25;13.82;;;;;;;-1.52;61.40;100278.25;5032112;28;20063;-53
2020/12/15 00:08:29;;;;;;;35.47;15.45;;;;;;;-1.60;61.50;100267.91;5032960;28;20029;-55
2020/12/15 00:10:54;;;;;;;31.92;15.35;;;;;;;-1.68;61.79;100265.50;5031162;28;20052;-55
2020/12/15 00:13:20;;;;;;;36.10;15.43;;;;;;;-1.54;61.76;100266.91;5032617;28;20029;-53
2020/12/15 00:15:45;;;;;;;32.83;15.50;;;;;;;-1.55;61.86;100267.81;5031635;28;20140;-59
2020/12/15 00:18:11;;;;;;;34.88;15.45;;;;;;;-1.59;61.81;100262.66;5032703;28;20040;-55
2020/12/15 00:20:47;;;;;;;33.75;15.32;;;;;;;-1.50;61.66;100260.69;5031654;28;20038;-55
2020/12/15 00:23:13;;;;;;;32.45;14.90;;;;;;;-1.45;61.26;100272.81;5031473;28;20056;-59
2020/12/15 00:25:40;;;;;;;30.73;14.05;;;;;;;-1.81;61.39;100185.28;5032315;28;20115;-53
2020/12/15 00:28:05;;;;;;;34.72;15.88;;;;;;;-1.40;61.34;100254.34;5031875;28;20045;-55
2020/12/15 00:30:31;;;;;;;35.60;15.52;;;;;;;-1.33;61.49;100268.16;5031732;28;20520;-53
2020/12/15 00:32:56;;;;;;;36.22;15.48;;;;;;;-1.30;60.99;100255.81;5036410;28;20033;-52
2020/12/15 00:35:22;;;;;;;34.05;14.85;;;;;;;-1.31;61.35;100250.63;5040035;28;20053;-55
2020/12/15 00:37:47;;;;;;;31.77;15.18;;;;;;;-1.47;61.36;100229.97;5031371;28;20051;-53
2020/12/15 00:40:13;;;;;;;31.90;14.93;;;;;;;-1.47;61.04;100224.72;5031432;28;20045;-53
2020/12/15 00:42:39;;;;;;;31.13;14.30;;;;;;;-1.30;61.19;100257.59;5048369;28;20060;-53
2020/12/15 00:45:05;;;;;;;32.45;14.57;;;;;;;-1.28;61.44;100253.16;5051344;28;20040;-58
2020/12/15 00:47:30;;;;;;;34.40;15.82;;;;;;;-1.28;61.65;100253.16;5035578;28;20073;-53
2020/12/15 00:49:56;;;;;;;33.88;15.20;;;;;;;-1.18;61.10;100259.06;5033401;28;20068;-54
2020/12/15 00:52:29;;;;;;;32.13;15.10;;;;;;;-1.25;60.95;100247.84;5036935;28;20052;-54
2020/12/15 00:54:54;;;;;;;31.60;13.93;;;;;;;-1.22;61.04;100270.53;5031998;28;20048;-53
2020/12/15 00:57:20;;;;;;;33.92;14.63;;;;;;;-1.35;60.91;100222.69;5032072;28;20037;-52
2020/12/15 00:59:45;;;;;;;33.00;14.23;;;;;;;-1.26;61.14;100253.13;5030923;28;20091;-54
2020/12/15 01:02:11;;;;;;;35.47;15.05;;;;;;;-1.34;61.08;100216.53;5030913;28;20045;-56
2020/12/15 01:04:37;;;;;;;36.92;15.38;;;;;;;-1.21;60.54;100248.59;5030606;28;20131;-57
2020/12/15 01:07:05;;;;;;;33.50;14.95;;;;;;;-1.65;60.48;100170.91;5031141;28;20503;-55
2020/12/15 01:09:30;;;;;;;30.98;13.45;;;;;;;-1.34;60.59;100227.91;5031367;28;20067;-53
2020/12/15 01:11:56;;;;;;;30.45;14.32;;;;;;;-1.34;61.00;100227.91;5030658;28;20041;-52
2020/12/15 01:14:22;;;;;;;35.33;14.65;;;;;;;-1.78;60.90;100161.59;5031405;28;20425;-53
2020/12/15 01:16:48;;;;;;;38.13;15.82;;;;;;;-1.30;61.06;100224.28;5031150;28;20145;-51
2020/12/15 01:19:14;;;;;;;35.17;15.38;;;;;;;-1.39;60.83;100227.16;5030949;28;20128;-53
2020/12/15 01:21:39;;;;;;;29.73;13.43;;;;;;;-1.23;60.65;100234.66;5031059;28;20037;-55
2020/12/15 01:24:05;;;;;;;35.33;14.90;;;;;;;-1.31;59.93;100233.09;5031522;28;20574;-57
2020/12/15 01:26:30;;;;;;;34.08;14.45;;;;;;;-1.35;60.89;100231.44;5029861;28;20044;-55
2020/12/15 01:28:55;;;;;;;33.50;14.38;;;;;;;-1.52;60.88;100217.84;5031589;28;20124;-51
2020/12/15 01:31:26;;;;;;;39.85;15.73;;;;;;;-1.47;60.70;100221.22;5031009;28;20405;-53
2020/12/15 01:33:52;;;;;;;34.30;14.48;;;;;;;-2.00;60.73;100132.38;5031456;28;20034;-55
2020/12/15 01:36:28;;;;;;;37.50;15.23;;;;;;;-1.39;60.80;100227.16;5030661;28;20477;-55
2020/12/15 01:38:53;;;;;;;34.47;14.63;;;;;;;-1.74;60.80;100165.84;5031395;28;20516;-50
2020/12/15 01:41:19;;;;;;;36.00;15.38;;;;;;;-1.39;60.99;100227.16;5030384;28;20108;-51
2020/12/15 01:44:01;;;;;;;37.95;15.80;;;;;;;-1.58;61.18;100213.59;5030098;28;20417;-56
2020/12/15 01:46:29;;;;;;;34.88;14.70;;;;;;;-1.45;60.80;100217.66;5030226;28;20033;-54
2020/12/15 01:48:56;;;;;;;41.72;16.23;;;;;;;-1.47;61.38;100219.47;5012758;28;20041;-55
2020/12/15 01:51:24;;;;;;;36.03;15.23;;;;;;;-1.56;61.65;100200.44;5029069;28;20468;-55
2020/12/15 01:53:54;;;;;;;37.28;15.68;;;;;;;-1.55;61.35;100186.41;5030655;28;20136;-51
2020/12/15 01:56:20;;;;;;;36.45;14.75;;;;;;;-1.25;61.16;100221.56;5029278;28;20417;-52
2020/12/15 01:58:51;;;;;;;39.20;16.42;;;;;;;-1.35;60.55;100202.53;5029496;28;20144;-54
2020/12/15 02:01:16;;;;;;;37.40;15.85;;;;;;;-1.42;60.49;100206.22;5029993;28;20072;-58
2020/12/15 02:03:42;;;;;;;35.83;15.60;;;;;;;-1.50;61.13;100208.16;5030559;28;20033;-58
2020/12/15 02:06:08;;;;;;;34.03;15.30;;;;;;;-1.45;61.49;100203.66;5030354;28;20496;-54
2020/12/15 02:08:33;;;;;;;36.63;15.52;;;;;;;-1.37;60.44;100201.72;5012513;28;20033;-52
2020/12/15 02:10:59;;;;;;;36.53;15.25;;;;;;;-1.43;60.85;100212.38;5034104;28;20488;-53
2020/12/15 02:13:24;;;;;;;35.53;15.40;;;;;;;-1.43;61.16;100207.13;5050683;28;20033;-51
2020/12/15 02:15:50;;;;;;;32.33;15.32;;;;;;;-1.52;60.80;100194.22;5039715;28;20464;-52
2020/12/15 02:18:16;;;;;;;37.05;16.23;;;;;;;-1.45;60.39;100215.03;5029838;28;20080;-55
2020/12/15 02:20:41;;;;;;;38.53;15.88;;;;;;;-1.57;61.10;100210.06;5029986;28;20068;-55
2020/12/15 02:23:07;;;;;;;36.83;14.52;;;;;;;-1.43;61.19;100232.53;5030590;28;20041;-53
2020/12/15 02:25:32;;;;;;;37.70;16.05;;;;;;;-1.43;60.96;100216.75;5030111;28;20372;-52
2020/12/15 02:27:58;;;;;;;39.65;15.38;;;;;;;-1.42;60.43;100208.88;5028372;28;20116;-56
2020/12/15 02:30:24;;;;;;;37.88;15.40;;;;;;;-1.75;60.96;100148.38;5041013;28;20397;-49
2020/12/15 02:32:49;;;;;;;37.15;15.52;;;;;;;-1.49;60.85;100204.63;5031441;28;20034;-54
2020/12/15 02:35:15;;;;;;;39.25;15.88;;;;;;;-1.43;60.72;100207.13;5030144;28;20052;-50
2020/12/15 02:37:40;;;;;;;38.42;14.63;;;;;;;-1.49;60.75;100215.16;5028903;28;20456;-54
2020/12/15 02:40:06;;;;;;;36.88;16.35;;;;;;;-1.41;61.11;100207.06;5030288;28;20040;-52
2020/12/15 02:42:32;;;;;;;34.08;15.02;;;;;;;-1.36;61.30;100208.69;5029380;28;20477;-52
2020/12/15 02:44:58;;;;;;;36.17;15.52;;;;;;;-1.31;61.21;100206.81;5029442;28;20030;-52
2020/12/15 02:47:24;;;;;;;36.50;15.68;;;;;;;-1.31;60.41;100201.56;5028915;28;20041;-49
2020/12/15 02:49:50;;;;;;;33.33;15.13;;;;;;;-1.35;60.81;100193.78;5029862;28;20407;-50
2020/12/15 02:52:16;;;;;;;37.88;16.42;;;;;;;-1.25;60.76;100216.31;5029064;28;20437;-52
2020/12/15 02:54:42;;;;;;;34.92;15.60;;;;;;;-1.30;61.04;100198.03;5028395;28;20066;-53
2020/12/15 02:57:08;;;;;;;37.38;16.45;;;;;;;-1.25;60.62;100195.28;5028968;28;20033;-55
2020/12/15 02:59:34;;;;;;;36.13;16.30;;;;;;;-1.34;60.84;100191.13;5012011;28;20064;-53
2020/12/15 03:01:59;;;;;;;38.72;15.32;;;;;;;-1.24;61.24;100190.88;5028778;28;20034;-54
2020/12/15 03:04:24;;;;;;;35.20;14.40;;;;;;;-1.38;60.68;100168.47;5028607;28;20048;-58
2020/12/15 03:06:50;;;;;;;41.35;15.73;;;;;;;-1.26;60.78;100187.44;5028962;28;20501;-52
2020/12/15 03:09:16;;;;;;;35.13;14.77;;;;;;;-1.25;60.84;100186.53;5029712;28;20554;-52
2020/12/15 03:11:41;;;;;;;36.08;14.77;;;;;;;-1.16;60.75;100188.94;5028932;28;20042;-55
2020/12/15 03:14:07;;;;;;;36.60;15.88;;;;;;;-1.19;60.39;100179.34;5028098;28;20038;-50
2020/12/15 03:16:33;;;;;;;36.92;15.50;;;;;;;-1.41;60.16;100141.41;5029097;28;20040;-52
2020/12/15 03:18:58;;;;;;;38.90;15.85;;;;;;;-1.20;60.57;100184.66;5029239;28;20132;-55
2020/12/15 03:21:24;;;;;;;41.67;15.73;;;;;;;-1.18;60.54;100183.72;5026683;28;20091;-51
2020/12/15 03:23:52;;;;;;;35.65;15.63;;;;;;;-1.26;60.63;100184.81;5029403;28;20041;-51
2020/12/15 03:26:18;;;;;;;34.05;15.07;;;;;;;-1.36;60.59;100155.28;5027877;28;20030;-53
2020/12/15 03:28:44;;;;;;;31.55;14.27;;;;;;;-1.17;60.37;100171.44;5028627;28;20087;-55
2020/12/15 03:31:11;;;;;;;33.08;14.38;;;;;;;-1.24;59.99;100165.50;5028092;28;20066;-54
2020/12/15 03:33:36;;;;;;;30.42;14.32;;;;;;;-1.21;60.29;100186.41;5028181;28;20037;-56
2020/12/15 03:36:02;;;;;;;30.25;13.98;;;;;;;-1.15;60.41;100195.91;5028642;28;20041;-56
2020/12/15 03:38:27;;;;;;;36.17;16.33;;;;;;;-1.09;60.56;100193.13;5028988;28;20053;-56
2020/12/15 03:40:53;;;;;;;34.17;13.80;;;;;;;-1.03;59.67;100197.34;5029027;28;20033;-58
2020/12/15 03:43:19;;;;;;;39.03;14.25;;;;;;;-1.06;60.05;100193.03;5028695;28;20457;-56
2020/12/15 03:45:44;;;;;;;36.75;15.05;;;;;;;-1.17;60.29;100187.22;5028568;28;20038;-56
2020/12/15 03:48:11;;;;;;;37.80;14.40;;;;;;;-1.17;60.23;100200.34;5029099;28;20128;-57
2020/12/15 03:50:37;;;;;;;35.92;14.45;;;;;;;-1.54;60.12;100135.63;5027061;28;20037;-55
2020/12/15 03:53:03;;;;;;;29.70;14.57;;;;;;;-1.14;59.96;100197.63;5009033;28;20038;-55
2020/12/15 03:55:29;;;;;;;32.78;15.55;;;;;;;-1.15;60.25;100201.16;5015124;28;20047;-55
2020/12/15 03:57:54;;;;;;;35.67;15.27;;;;;;;-1.68;59.75;100102.72;5028590;28;20049;-56
2020/12/15 04:00:20;;;;;;;33.85;14.85;;;;;;;-1.65;59.97;100112.25;5027499;28;20041;-56
2020/12/15 04:02:47;;;;;;;31.63;14.38;;;;;;;-1.24;59.92;100183.00;5028416;28;20056;-53
2020/12/15 04:05:13;;;;;;;32.45;14.77;;;;;;;-1.36;60.15;100171.94;5028854;28;20107;-52
2020/12/15 04:07:40;;;;;;;35.42;13.93;;;;;;;-1.38;60.06;100172.84;5028635;28;20037;-53
2020/12/15 04:10:06;;;;;;;35.08;15.57;;;;;;;-1.28;59.79;100187.50;5028559;28;20501;-55
2020/12/15 04:12:32;;;;;;;31.63;14.85;;;;;;;-1.34;60.05;100180.63;5028696;28;20076;-56
2020/12/15 04:14:57;;;;;;;32.95;14.43;;;;;;;-1.28;59.89;100191.88;5029420;28;20511;-51
2020/12/15 04:17:23;;;;;;;30.63;13.30;;;;;;;-1.27;60.08;100190.97;5029306;28;20025;-55
2020/12/15 04:19:48;;;;;;;33.08;13.90;;;;;;;-1.31;60.18;100191.06;5029569;28;20029;-55
2020/12/15 04:22:14;;;;;;;32.50;14.10;;;;;;;-1.30;60.11;100191.94;5027825;28;20582;-54
2020/12/15 04:24:39;;;;;;;39.33;15.38;;;;;;;-1.32;59.98;100204.25;5026937;28;20029;-53
2020/12/15 04:27:05;;;;;;;36.55;14.90;;;;;;;-1.32;59.93;100188.47;5029074;28;20474;-50
2020/12/15 04:29:30;;;;;;;36.28;14.68;;;;;;;-1.27;60.15;100196.22;5011519;28;20129;-51
2020/12/15 04:31:56;;;;;;;34.42;14.43;;;;;;;-1.22;60.20;100189.94;5028694;28;20082;-53
2020/12/15 04:34:22;;;;;;;31.40;14.52;;;;;;;-1.22;60.44;100186.44;5031337;28;20041;-54
2020/12/15 04:36:48;;;;;;;30.23;13.77;;;;;;;-1.22;60.50;100194.31;5031925;28;20033;-54
2020/12/15 04:39:13;;;;;;;34.00;15.80;;;;;;;-1.18;59.68;100203.88;5032340;28;20421;-51
2020/12/15 04:41:38;;;;;;;33.53;15.23;;;;;;;-1.16;60.13;100202.06;5031223;28;20115;-52
2020/12/15 04:44:05;;;;;;;37.17;14.98;;;;;;;-1.10;60.23;100215.03;5032273;28;20076;-50
2020/12/15 04:46:37;;;;;;;34.47;14.95;;;;;;;-1.11;59.96;100181.78;5031224;28;20481;-56
2020/12/15 04:49:08;;;;;;;33.97;15.05;;;;;;;-1.04;60.32;100195.63;5032371;28;20069;-55
2020/12/15 04:52:01;;;;;;;38.88;15.27;;;;;;;-0.98;60.03;100190.22;5031468;28;20040;-53
2020/12/15 04:54:34;;;;;;;36.33;15.05;;;;;;;-0.99;60.08;100206.00;5027197;28;20049;-51
2020/12/15 04:57:02;;;;;;;36.22;15.27;;;;;;;-1.20;59.56;100158.41;5031872;28;20392;-56
2020/12/15 04:59:32;;;;;;;32.97;13.90;;;;;;;-0.93;59.80;100190.94;5015451;28;20053;-56
2020/12/15 05:02:02;;;;;;;35.97;15.25;;;;;;;-1.07;59.50;100193.94;5011778;28;20358;-51
2020/12/15 05:04:32;;;;;;;35.58;14.07;;;;;;;-1.02;60.36;100197.31;5011930;28;20041;-50
2020/12/15 05:06:59;;;;;;;38.28;15.88;;;;;;;-0.93;59.85;100195.34;5018176;28;20454;-51
2020/12/15 05:09:30;;;;;;;27.80;13.90;;;;;;;-0.92;59.84;100189.19;5016990;28;20121;-54
2020/12/15 05:11:57;;;;;;;31.67;14.50;;;;;;;-0.87;59.06;100195.19;5011820;28;20199;-54
2020/12/15 05:14:23;;;;;;;33.15;14.00;;;;;;;-0.94;59.74;100189.22;5011287;28;20474;-52
2020/12/15 05:16:49;;;;;;;35.53;15.18;;;;;;;-1.04;59.31;100196.47;5017805;28;20053;-50
2020/12/15 05:19:15;;;;;;;30.95;14.27;;;;;;;-1.05;59.79;100202.63;5010908;28;20084;-51
2020/12/15 05:21:55;;;;;;;32.47;14.88;;;;;;;-1.01;59.91;100212.16;5019232;28;20026;-51
2020/12/15 05:24:27;;;;;;;32.78;16.00;;;;;;;-0.99;59.31;100212.13;5013832;28;20050;-52
2020/12/15 05:26:53;;;;;;;37.15;15.63;;;;;;;-1.01;60.28;100206.91;5011350;28;20044;-48
2020/12/15 05:29:21;;;;;;;35.67;15.20;;;;;;;-0.97;60.14;100199.81;5024530;28;20448;-52
2020/12/15 05:31:46;;;;;;;33.63;15.70;;;;;;;-1.03;59.97;100184.22;5031297;28;20095;-58
2020/12/15 05:34:20;;;;;;;32.38;14.88;;;;;;;-0.81;59.62;100202.88;5021528;28;20041;-52
2020/12/15 05:36:50;;;;;;;33.85;14.20;;;;;;;-0.74;59.58;100209.69;5011195;28;20056;-54
2020/12/15 05:39:16;;;;;;;34.13;15.68;;;;;;;-0.73;58.83;100208.78;5014904;28;20050;-53
2020/12/15 05:41:41;;;;;;;34.53;14.57;;;;;;;-0.81;58.94;100212.56;5023632;28;20033;-54
2020/12/15 05:44:07;;;;;;;31.23;13.90;;;;;;;-1.39;59.79;100129.97;5014581;28;20063;-59
2020/12/15 05:46:33;;;;;;;35.95;15.02;;;;;;;-1.04;59.89;100207.00;5031091;28;20120;-51
2020/12/15 05:49:06;;;;;;;34.50;15.25;;;;;;;-0.98;60.20;100212.97;4995182;28;20037;-55
2020/12/15 05:51:44;;;;;;;35.30;14.63;;;;;;;-0.94;59.78;100217.28;5010695;28;20924;-55
2020/12/15 05:54:13;;;;;;;35.20;15.00;;;;;;;-1.03;59.35;100195.56;5010758;28;20061;-51
2020/12/15 05:56:41;;;;;;;32.95;13.85;;;;;;;-1.22;60.15;100178.56;5014110;28;20034;-53
2020/12/15 05:59:21;;;;;;;35.58;14.30;;;;;;;-0.97;60.36;100220.84;5026054;28;20057;-52
2020/12/15 06:01:51;;;;;;;31.83;14.40;;;;;;;-0.93;59.69;100229.53;5030114;28;20417;-52
2020/12/15 06:04:18;;;;;;;32.60;15.20;;;;;;;-1.04;59.27;100212.25;5030495;28;20108;-54
2020/12/15 06:06:44;;;;;;;39.90;16.08;;;;;;;-0.99;59.83;100234.91;5029430;28;20033;-55
2020/12/15 06:09:15;;;;;;;35.08;15.25;;;;;;;-1.63;59.79;100132.34;5030065;28;20041;-50
2020/12/15 06:11:43;;;;;;;41.17;17.27;;;;;;;-1.05;59.95;100234.19;5028323;28;20076;-53
2020/12/15 06:14:09;;;;;;;38.28;16.25;;;;;;;-0.96;59.39;100226.97;5029586;28;20546;-55
2020/12/15 06:16:35;;;;;;;37.80;15.90;;;;;;;-0.96;59.13;100224.34;5029190;28;20492;-48
2020/12/15 06:19:01;;;;;;;37.38;16.52;;;;;;;-1.04;59.74;100208.78;5030308;28;20033;-55
2020/12/15 06:21:28;;;;;;;36.75;16.70;;;;;;;-1.27;59.31;100164.69;5028452;28;20056;-55
2020/12/15 06:24:06;;;;;;;41.35;17.67;;;;;;;-0.87;59.67;100232.81;5030061;28;20485;-53
2020/12/15 06:26:33;;;;;;;39.25;17.45;;;;;;;-0.81;59.07;100229.19;5028754;28;20389;-48
2020/12/15 06:29:05;;;;;;;31.98;15.57;;;;;;;-1.05;59.40;100179.00;5030026;28;20037;-50
2020/12/15 06:31:34;;;;;;;40.58;16.42;;;;;;;-0.82;58.82;100219.56;5029581;28;20420;-51
2020/12/15 06:34:02;;;;;;;34.92;16.40;;;;;;;-0.97;59.43;100202.44;5029827;28;20131;-54
2020/12/15 06:36:30;;;;;;;39.55;17.73;;;;;;;-0.88;59.66;100214.47;5029872;28;20489;-56
2020/12/15 06:38:57;;;;;;;36.75;16.70;;;;;;;-0.88;59.53;100207.44;5029592;28;20030;-51
2020/12/15 06:41:24;;;;;;;40.35;16.80;;;;;;;-1.12;59.29;100153.78;5028644;28;20603;-51
2020/12/15 06:43:50;;;;;;;38.95;17.70;;;;;;;-0.60;59.32;100243.53;5012253;28;20033;-50
2020/12/15 06:46:25;;;;;;;41.13;18.52;;;;;;;-0.55;58.73;100238.09;5029347;28;20033;-53
2020/12/15 06:48:53;;;;;;;33.95;16.48;;;;;;;-0.62;58.74;100237.41;5028774;28;20578;-54
2020/12/15 06:51:36;;;;;;;36.72;16.80;;;;;;;-0.71;58.74;100213.16;5011295;28;20128;-50
2020/12/15 06:54:05;;;;;;;42.47;17.58;;;;;;;-0.53;58.56;100230.19;5029350;28;20041;-48
2020/12/15 06:56:32;;;;;;;44.47;17.42;;;;;;;-0.54;58.59;100231.94;5029590;28;20033;-51
2020/12/15 06:59:06;;;;;;;38.88;17.10;;;;;;;-0.59;59.25;100212.81;5029136;28;20060;-54
2020/12/15 07:01:33;;;;;;;39.35;17.70;;;;;;;-0.48;58.77;100242.31;5028612;28;20053;-53
2020/12/15 07:04:01;;;;;;;39.72;18.25;;;;;;;-0.36;58.77;100232.34;5028772;28;20112;-53
2020/12/15 07:06:28;;;;;;;39.30;18.38;;;;;;;-0.34;58.08;100220.00;5028050;28;20056;-52
2020/12/15 07:08:57;;;;;;;38.70;17.08;;;;;;;-0.17;58.46;100235.28;5028229;28;20057;-56
2020/12/15 07:11:27;;;;;;;39.45;17.63;;;;;;;-0.17;57.86;100219.50;5028062;28;20045;-56
2020/12/15 07:14:00;;;;;;;43.38;20.10;;;;;;;-0.23;58.78;100220.56;5028174;28;20037;-56
2020/12/15 07:16:27;;;;;;;40.13;18.77;;;;;;;-0.66;58.17;100142.91;5029139;28;20067;-55
2020/12/15 07:18:53;;;;;;;44.75;20.20;;;;;;;-0.20;58.04;100224.84;5028680;28;20041;-54
2020/12/15 07:21:21;;;;;;;44.80;19.85;;;;;;;-0.32;58.04;100205.91;5027557;28;20524;-50
2020/12/15 07:23:47;;;;;;;45.10;20.20;;;;;;;-0.24;58.02;100224.09;5025697;28;20033;-52
2020/12/15 07:26:18;;;;;;;43.10;21.05;;;;;;;-0.31;58.26;100212.00;5029027;28;20037;-56
2020/12/15 07:28:46;;;;;;;39.35;19.30;;;;;;;-0.53;58.35;100165.28;5028493;28;20084;-52
2020/12/15 07:31:12;;;;;;;40.85;19.85;;;;;;;-0.06;57.64;100230.56;5028598;28;20059;-54
2020/12/15 07:33:39;;;;;;;41.25;19.60;;;;;;;-0.03;57.99;100229.59;5028829;28;20525;-54
2020/12/15 07:36:17;;;;;;;36.47;18.52;;;;;;;0.10;57.20;100232.72;5028113;28;20107;-53
2020/12/15 07:38:44;;;;;;;38.65;19.05;;;;;;;0.03;57.50;100234.72;5028717;28;20041;-54
2020/12/15 07:41:16;;;;;;;37.75;18.42;;;;;;;0.05;57.32;100243.41;5029401;28;20046;-50
2020/12/15 07:44:12;;;;;;;44.72;19.60;;;;;;;0.11;57.65;100242.34;5028294;28;20060;-54
2020/12/15 07:46:44;;;;;;;40.15;18.98;;;;;;;0.18;57.66;100237.75;5025655;28;20040;-52
2020/12/15 07:49:10;;;;;;;39.63;17.30;;;;;;;0.18;57.36;100237.75;5027240;28;20038;-52
2020/12/15 07:51:39;;;;;;;39.95;18.95;;;;;;;0.18;57.63;100238.63;5026979;28;20040;-53
2020/12/15 07:54:05;;;;;;;42.70;18.15;;;;;;;0.20;57.81;100234.19;5026705;28;20106;-50
2020/12/15 07:56:31;;;;;;;36.78;18.42;;;;;;;0.22;57.16;100232.34;5026338;28;20041;-49
2020/12/15 07:58:59;;;;;;;40.67;18.55;;;;;;;0.26;56.96;100236.63;5008988;28;20099;-51
2020/12/15 08:01:29;;;;;;;45.67;19.73;;;;;;;0.31;56.54;100233.84;5020762;28;20065;-56
2020/12/15 08:04:13;;;;;;;41.67;18.88;;;;;;;0.39;56.53;100230.97;5027199;28;20057;-55
2020/12/15 08:06:44;;;;;;;39.90;19.52;;;;;;;-0.07;56.07;100147.25;5019577;28;20047;-51
2020/12/15 08:09:11;;;;;;;41.20;19.52;;;;;;;0.39;56.77;100229.19;5031007;28;20492;-54
2020/12/15 08:11:43;;;;;;;42.60;20.65;;;;;;;0.45;56.49;100235.16;5031626;28;20033;-51
2020/12/15 08:14:11;;;;;;;38.95;20.15;;;;;;;0.49;56.67;100228.91;5029794;28;20056;-53
2020/12/15 08:16:36;;;;;;;40.00;20.30;;;;;;;0.61;56.36;100231.13;5027014;28;20045;-53
2020/12/15 08:19:04;;;;;;;41.80;19.73;;;;;;;0.62;55.91;100227.59;5032185;28;20051;-52
2020/12/15 08:21:50;;;;;;;44.63;20.30;;;;;;;0.17;56.09;100141.25;5011856;28;20029;-57
2020/12/15 08:24:21;;;;;;;41.45;19.50;;;;;;;0.73;55.42;100229.00;5029242;28;20037;-53
2020/12/15 08:26:47;;;;;;;44.17;19.73;;;;;;;0.65;55.94;100219.56;5030301;28;20033;-54
2020/12/15 08:29:13;;;;;;;49.25;21.75;;;;;;;0.58;55.51;100228.59;5029928;28;20048;-57
2020/12/15 08:31:44;;;;;;;45.45;21.40;;;;;;;0.64;55.80;100232.81;5029217;28;20053;-57
2020/12/15 08:34:16;;;;;;;39.97;20.48;;;;;;;0.69;56.12;100226.47;5028601;28;20037;-54
2020/12/15 08:36:48;;;;;;;42.22;19.92;;;;;;;0.74;55.75;100220.19;5031232;28;20045;-51
2020/12/15 08:39:18;;;;;;;43.50;20.98;;;;;;;0.59;55.27;100190.78;5039935;28;20392;-57
2020/12/15 08:41:48;;;;;;;39.05;20.23;;;;;;;0.67;55.61;100230.91;5038658;28;20154;-51
2020/12/15 08:44:18;;;;;;;39.35;18.35;;;;;;;0.65;55.46;100221.34;5037716;28;20067;-51
2020/12/15 08:46:44;;;;;;;43.08;20.70;;;;;;;0.62;55.86;100238.13;5031690;28;20041;-55
2020/12/15 08:49:11;;;;;;;38.65;19.65;;;;;;;0.54;55.79;100213.81;5031300;28;20409;-59
2020/12/15 08:51:40;;;;;;;43.33;20.92;;;;;;;0.61;55.59;100225.84;5030895;28;20037;-63
2020/12/15 08:54:08;;;;;;;48.45;20.88;;;;;;;0.69;55.33;100244.91;5019953;28;20476;-59
2020/12/15 08:56:34;;;;;;;43.67;20.67;;;;;;;0.57;55.27;100221.59;5036972;28;20065;-54
2020/12/15 08:59:14;;;;;;;45.97;21.20;;;;;;;0.61;55.13;100225.00;5031339;28;20542;-55
2020/12/15 09:01:44;;;;;;;45.47;20.77;;;;;;;0.65;54.77;100259.09;5031449;28;20572;-52
2020/12/15 09:04:11;;;;;;;49.63;21.70;;;;;;;0.48;55.24;100228.03;5030986;28;20040;-56
2020/12/15 09:06:38;;;;;;;53.95;20.92;;;;;;;0.60;55.41;100247.84;5012159;28;20448;-54
2020/12/15 09:09:06;;;;;;;43.35;20.92;;;;;;;0.59;55.35;100248.75;5030946;28;20099;-54
2020/12/15 09:11:32;;;;;;;48.58;23.33;;;;;;;0.61;55.52;100249.56;5029461;28;20039;-56
2020/12/15 09:14:03;;;;;;;43.80;21.88;;;;;;;0.66;55.23;100250.28;5030618;28;20174;-54
2020/12/15 09:16:32;;;;;;;46.65;20.77;;;;;;;0.75;55.26;100238.56;5030635;28;20033;-60
2020/12/15 09:19:08;;;;;;;54.53;25.13;;;;;;;0.82;54.93;100237.44;5027944;28;20033;-55
2020/12/15 09:21:33;;;;;;;53.63;23.15;;;;;;;0.79;54.86;100221.75;5029945;28;20144;-60
2020/12/15 09:23:59;;;;;;;43.10;21.52;;;;;;;0.79;54.87;100228.81;5030784;28;20033;-58
2020/12/15 09:26:24;;;;;;;49.90;24.00;;;;;;;0.77;54.77;100239.38;5030199;28;20086;-53
2020/12/15 09:28:50;;;;;;;47.40;22.60;;;;;;;0.73;54.88;100239.56;5030008;28;20907;-55
2020/12/15 09:31:18;;;;;;;47.17;22.85;;;;;;;0.81;54.86;100243.63;5029780;28;20056;-59
2020/12/15 09:33:44;;;;;;;47.50;23.50;;;;;;;0.84;54.95;100247.97;5036904;28;20033;-54
2020/12/15 09:36:14;;;;;;;44.47;22.25;;;;;;;0.85;54.77;100241.75;5029904;28;20060;-57
2020/12/15 09:38:40;;;;;;;49.08;23.42;;;;;;;0.73;55.03;100223.75;5028974;28;20182;-51
2020/12/15 09:41:06;;;;;;;50.13;23.27;;;;;;;0.84;54.40;100235.66;5029591;28;20033;-54
2020/12/15 09:43:31;;;;;;;48.65;24.13;;;;;;;0.82;54.75;100232.19;5029728;28;20045;-56
2020/12/15 09:45:57;;;;;;;49.47;23.15;;;;;;;0.92;54.95;100240.63;5030872;28;20041;-59
2020/12/15 09:48:23;;;;;;;45.85;23.10;;;;;;;0.95;54.91;100242.31;5029055;28;20029;-52
2020/12/15 09:50:49;;;;;;;43.88;23.05;;;;;;;0.96;54.63;100236.97;5029917;28;20123;-56
2020/12/15 09:53:15;;;;;;;48.65;23.75;;;;;;;1.00;54.50;100235.09;5029856;28;20052;-54
2020/12/15 09:55:40;;;;;;;43.10;23.40;;;;;;;1.00;54.90;100230.72;5030182;28;20480;-54
2020/12/15 09:58:06;;;;;;;49.95;25.23;;;;;;;0.99;54.23;100223.72;5028768;28;20413;-65
2020/12/15 10:00:31;;;;;;;47.90;22.23;;;;;;;1.03;54.06;100227.09;5030186;28;20049;-52
2020/12/15 10:02:57;;;;;;;42.78;21.75;;;;;;;1.06;53.99;100231.41;5023060;28;20493;-53
2020/12/15 10:05:22;;;;;;;48.38;23.25;;;;;;;1.06;54.16;100231.41;5029804;28;20041;-59
2020/12/15 10:07:48;;;;;;;43.95;22.30;;;;;;;0.70;54.07;100178.09;5022024;28;20373;-56
2020/12/15 10:10:16;;;;;;;46.78;21.67;;;;;;;1.11;54.13;100240.88;5027774;28;20033;-54
2020/12/15 10:12:42;;;;;;;41.67;21.65;;;;;;;0.97;54.01;100212.38;5025231;28;20040;-56
2020/12/15 10:15:10;;;;;;;43.92;21.88;;;;;;;1.14;53.82;100253.97;5028979;28;20418;-56
2020/12/15 10:17:36;;;;;;;49.70;22.25;;;;;;;1.14;54.17;100237.25;5029112;28;20849;-56
2020/12/15 10:20:03;;;;;;;44.25;21.42;;;;;;;1.17;53.88;100246.84;5029064;28;20052;-55
2020/12/15 10:22:30;;;;;;;41.47;21.40;;;;;;;1.14;54.20;100240.78;5029412;28;20120;-60
2020/12/15 10:24:55;;;;;;;45.22;22.60;;;;;;;1.18;53.95;100245.94;5029548;28;20051;-58
2020/12/15 10:27:21;;;;;;;45.63;22.08;;;;;;;1.18;54.22;100241.50;5028844;28;20219;-53
2020/12/15 10:29:46;;;;;;;44.92;22.52;;;;;;;1.21;53.91;100245.84;5029580;28;20053;-55
2020/12/15 10:32:12;;;;;;;44.65;23.38;;;;;;;1.08;53.94;100230.41;5028941;28;20029;-52
2020/12/15 10:34:37;;;;;;;46.45;23.38;;;;;;;1.12;54.39;100247.00;5029322;28;20052;-54
2020/12/15 10:37:03;;;;;;;44.28;23.10;;;;;;;1.06;54.29;100231.41;5028765;28;20108;-59
2020/12/15 10:39:28;;;;;;;49.40;23.63;;;;;;;1.12;54.31;100241.72;5028838;28;20481;-56
2020/12/15 10:41:54;;;;;;;50.47;23.65;;;;;;;0.96;54.02;100215.88;5029111;28;20032;-55
2020/12/15 10:44:19;;;;;;;48.80;22.92;;;;;;;1.10;53.76;100249.72;5028471;28;20040;-57
2020/12/15 10:46:46;;;;;;;44.53;22.98;;;;;;;1.09;53.78;100244.47;5020539;28;20569;-54
2020/12/15 10:49:12;;;;;;;48.17;23.25;;;;;;;1.00;54.17;100228.06;5027592;28;20036;-55
2020/12/15 10:51:39;;;;;;;48.10;23.17;;;;;;;1.03;53.78;100242.91;5028580;28;20037;-61
2020/12/15 10:54:05;;;;;;;47.97;23.65;;;;;;;1.01;54.12;100247.38;5028645;28;20041;-51
2020/12/15 10:56:31;;;;;;;45.58;22.17;;;;;;;0.97;53.80;100254.56;5029211;28;20037;-54
2020/12/15 10:58:56;;;;;;;45.75;23.10;;;;;;;0.77;53.98;100226.22;5027523;28;20055;-54
2020/12/15 11:01:23;;;;;;;52.97;24.42;;;;;;;0.94;54.32;100241.44;5028729;28;20812;-52
2020/12/15 11:03:49;;;;;;;50.92;25.50;;;;;;;0.55;54.41;100163.69;5028243;28;20087;-51
2020/12/15 11:06:14;;;;;;;50.60;24.70;;;;;;;0.85;54.19;100210.13;5028058;28;20049;-54
2020/12/15 11:08:40;;;;;;;47.22;23.42;;;;;;;1.02;54.20;100242.97;5028760;28;20048;-55
2020/12/15 11:11:05;;;;;;;49.53;24.92;;;;;;;0.94;54.62;100248.50;5028190;28;20343;-53
2020/12/15 11:13:31;;;;;;;52.15;24.67;;;;;;;0.83;55.52;100256.78;5028936;28;20040;-54